Time;durP1;ratioP1;P1;durP2;ratioP2;P2;SDS_P1;SDS_P2;PMS_P1;PMS_P2;Temp;Humidity;BMP_temperature;BMP_pressure;BME280_temperature;BME280_humidity;BME280_pressure;Samples;Min_cycle;Max_cycle;Signal;HPM_P1;HPM_P2
2023/09/03 00:00:30;;;;;;;7.80;7.20;;;24.50;99.90;;;;;;5145088;28;20027;-74
2023/09/03 00:03:01;;;;;;;7.60;6.78;;;24.60;99.90;;;;;;5145127;28;20041;-74
2023/09/03 00:05:32;;;;;;;7.65;7.05;;;24.60;99.90;;;;;;5145118;28;20157;-73
2023/09/03 00:08:04;;;;;;;9.23;7.40;;;24.50;99.90;;;;;;5144550;28;20041;-74
2023/09/03 00:10:37;;;;;;;7.28;6.53;;;24.50;99.90;;;;;;5144353;28;20372;-73
2023/09/03 00:13:08;;;;;;;9.23;7.45;;;24.50;99.90;;;;;;5143761;28;20062;-74
2023/09/03 00:15:39;;;;;;;7.60;6.90;;;24.40;99.90;;;;;;5143785;28;20073;-74
2023/09/03 00:18:11;;;;;;;8.35;7.57;;;24.50;99.90;;;;;;5143608;28;20042;-74
2023/09/03 00:20:57;;;;;;;8.20;7.40;;;24.40;99.90;;;;;;5143557;28;20023;-73
2023/09/03 00:23:29;;;;;;;7.40;6.70;;;24.50;99.90;;;;;;5143630;28;20018;-74
2023/09/03 00:26:00;;;;;;;8.48;7.10;;;24.50;99.90;;;;;;5144011;28;20034;-72
2023/09/03 00:28:31;;;;;;;10.57;7.20;;;24.50;99.90;;;;;;5144845;28;20549;-73
2023/09/03 00:31:10;;;;;;;9.70;6.95;;;24.60;99.90;;;;;;5144764;28;20026;-74
2023/09/03 00:33:41;;;;;;;7.35;6.82;;;24.50;99.90;;;;;;5176198;28;20030;-74
2023/09/03 00:36:14;;;;;;;7.18;6.57;;;24.40;99.90;;;;;;5144804;28;20030;-74
2023/09/03 00:38:49;;;;;;;7.30;6.53;;;24.40;99.90;;;;;;5144581;28;20031;-74
2023/09/03 00:41:20;;;;;;;9.70;6.88;;;24.50;99.90;;;;;;5144608;28;20556;-73
2023/09/03 00:43:51;;;;;;;6.82;6.03;;;24.50;99.90;;;;;;5144789;28;20239;-73
2023/09/03 00:46:23;;;;;;;7.38;6.78;;;24.60;99.90;;;;;;5144870;28;20418;-73
2023/09/03 00:48:54;;;;;;;8.95;6.53;;;24.50;99.90;;;;;;5144783;28;20118;-73
2023/09/03 00:51:25;;;;;;;8.27;6.53;;;24.50;99.90;;;;;;5144758;28;20102;-73
2023/09/03 00:53:57;;;;;;;7.82;6.95;;;24.50;99.90;;;;;;5144826;28;20057;-74
2023/09/03 00:56:28;;;;;;;11.38;7.35;;;24.40;99.90;;;;;;5144849;28;20027;-73
2023/09/03 00:59:02;;;;;;;9.40;6.65;;;24.50;99.90;;;;;;5148278;28;20049;-73
2023/09/03 01:01:33;;;;;;;7.07;6.55;;;24.40;99.90;;;;;;5148521;28;20015;-74
2023/09/03 01:04:04;;;;;;;7.88;7.10;;;24.50;99.90;;;;;;5147434;28;20471;-74
2023/09/03 01:06:35;;;;;;;10.20;6.57;;;24.50;99.90;;;;;;5148176;28;20579;-74
2023/09/03 01:09:05;;;;;;;8.40;7.25;;;24.50;99.90;;;;;;5146750;28;20051;-74
2023/09/03 01:11:46;;;;;;;8.30;7.20;;;24.40;99.90;;;;;;5146879;28;20029;-73
2023/09/03 01:14:39;;;;;;;7.47;6.43;;;24.30;99.90;;;;;;5147013;28;20051;-73
2023/09/03 01:17:49;;;;;;;6.57;5.97;;;24.40;99.90;;;;;;5146888;28;20061;-74
2023/09/03 01:20:35;;;;;;;7.35;6.65;;;24.40;99.90;;;;;;5141083;28;20042;-74
2023/09/03 01:23:47;;;;;;;6.70;6.07;;;24.40;99.90;;;;;;5147637;28;20034;-73
2023/09/03 01:26:36;;;;;;;7.88;6.50;;;24.40;99.90;;;;;;5148022;28;20404;-74
2023/09/03 01:29:08;;;;;;;7.80;6.95;;;24.40;99.90;;;;;;5147855;28;20045;-74
2023/09/03 01:31:40;;;;;;;7.18;6.63;;;24.40;99.90;;;;;;5148037;28;20513;-74
2023/09/03 01:34:16;;;;;;;7.15;6.38;;;24.40;99.90;;;;;;5178948;28;20022;-74
2023/09/03 01:36:57;;;;;;;7.00;6.30;;;24.30;99.90;;;;;;5147897;28;20015;-75
2023/09/03 01:39:28;;;;;;;7.10;6.28;;;24.40;99.90;;;;;;5147163;28;20026;-74
2023/09/03 01:41:59;;;;;;;10.27;6.63;;;24.30;99.90;;;;;;5147701;28;20090;-72
2023/09/03 01:44:29;;;;;;;8.40;6.40;;;24.30;99.90;;;;;;5147765;28;20027;-74
2023/09/03 01:47:20;;;;;;;6.55;5.88;;;24.40;99.90;;;;;;5146277;28;20031;-74
2023/09/03 01:50:07;;;;;;;7.35;6.65;;;24.30;99.90;;;;;;5147489;28;20840;-73
2023/09/03 01:53:02;;;;;;;6.85;6.10;;;24.30;99.90;;;;;;5147595;28;20078;-73
2023/09/03 01:55:38;;;;;;;6.15;5.65;;;24.30;99.90;;;;;;5147623;28;20031;-74
2023/09/03 01:58:10;;;;;;;7.15;6.55;;;24.30;99.90;;;;;;5147560;28;20023;-73
2023/09/03 02:00:42;;;;;;;7.20;6.47;;;24.30;99.90;;;;;;5146931;28;20035;-73
2023/09/03 02:03:13;;;;;;;6.20;5.60;;;24.30;99.90;;;;;;5146787;28;20034;-74
2023/09/03 02:05:44;;;;;;;8.02;7.10;;;24.30;99.90;;;;;;5146043;28;20497;-74
2023/09/03 02:08:15;;;;;;;7.88;5.85;;;24.30;99.90;;;;;;5145449;28;20062;-74
2023/09/03 02:10:46;;;;;;;6.93;6.32;;;24.30;99.90;;;;;;5145117;28;20075;-74
2023/09/03 02:13:17;;;;;;;6.93;6.25;;;24.30;99.90;;;;;;5144472;28;20058;-74
2023/09/03 02:15:48;;;;;;;7.10;6.50;;;24.30;99.90;;;;;;5145716;28;20109;-74
2023/09/03 02:18:18;;;;;;;7.97;7.13;;;24.20;99.90;;;;;;5146166;28;20031;-74
2023/09/03 02:20:49;;;;;;;7.85;7.18;;;24.20;99.90;;;;;;5146975;28;20022;-73
2023/09/03 02:23:20;;;;;;;11.48;6.43;;;24.20;99.90;;;;;;5146807;28;20089;-74
2023/09/03 02:26:01;;;;;;;7.05;6.45;;;24.20;99.90;;;;;;5145638;28;20037;-73
2023/09/03 02:28:34;;;;;;;7.50;6.90;;;24.10;99.90;;;;;;5146881;28;20121;-74
2023/09/03 02:31:05;;;;;;;7.28;6.55;;;24.10;99.90;;;;;;5146757;28;20471;-74
2023/09/03 02:33:36;;;;;;;6.85;6.28;;;24.20;99.90;;;;;;5146666;28;20069;-73
2023/09/03 02:36:07;;;;;;;6.82;6.22;;;24.20;99.90;;;;;;5145410;28;20054;-74
2023/09/03 02:38:40;;;;;;;7.70;7.00;;;24.10;99.90;;;;;;5146409;28;20026;-73
2023/09/03 02:41:10;;;;;;;7.63;6.93;;;24.10;99.90;;;;;;5146416;28;20109;-73
2023/09/03 02:43:41;;;;;;;7.20;6.60;;;24.10;99.90;;;;;;5146495;28;20035;-74
2023/09/03 02:46:12;;;;;;;6.75;6.15;;;24.10;99.90;;;;;;5145167;28;20023;-74
2023/09/03 02:48:43;;;;;;;7.00;6.45;;;24.10;99.90;;;;;;5146409;28;20038;-73
2023/09/03 02:51:14;;;;;;;7.25;6.55;;;24.00;99.90;;;;;;5146172;28;20027;-74
2023/09/03 02:53:46;;;;;;;7.60;6.93;;;24.10;99.90;;;;;;5146425;28;20387;-72
2023/09/03 02:56:17;;;;;;;6.90;6.30;;;24.00;99.90;;;;;;5144288;28;20513;-74
2023/09/03 02:58:48;;;;;;;7.55;6.80;;;24.10;99.90;;;;;;5145605;28;20054;-74
2023/09/03 03:01:20;;;;;;;8.00;6.95;;;24.20;99.90;;;;;;5144855;28;20481;-74
2023/09/03 03:03:51;;;;;;;7.20;6.45;;;24.10;99.90;;;;;;5144855;28;20027;-74
2023/09/03 03:06:22;;;;;;;8.07;7.38;;;24.10;99.90;;;;;;5144790;28;20027;-74
2023/09/03 03:08:53;;;;;;;7.93;6.95;;;24.00;99.90;;;;;;5144446;28;20041;-73
2023/09/03 03:11:23;;;;;;;8.18;7.05;;;24.10;99.90;;;;;;5144790;28;20055;-74
2023/09/03 03:13:54;;;;;;;7.68;6.82;;;24.10;99.90;;;;;;5144836;28;20033;-73
2023/09/03 03:16:25;;;;;;;7.70;6.93;;;24.10;99.90;;;;;;5146162;28;20099;-74
2023/09/03 03:18:56;;;;;;;7.80;7.10;;;24.10;99.90;;;;;;5145634;28;20471;-74
2023/09/03 03:21:27;;;;;;;10.45;6.20;;;24.10;99.90;;;;;;5145659;28;20542;-73
2023/09/03 03:23:58;;;;;;;7.10;6.50;;;24.10;99.90;;;;;;5145596;28;20141;-74
2023/09/03 03:26:31;;;;;;;7.43;6.72;;;24.20;99.90;;;;;;5145646;28;20486;-74
2023/09/03 03:29:02;;;;;;;6.75;6.25;;;24.10;99.90;;;;;;5176884;28;20041;-72
2023/09/03 03:31:32;;;;;;;7.75;6.82;;;24.20;99.90;;;;;;5145757;28;20022;-73
2023/09/03 03:34:03;;;;;;;6.82;6.22;;;24.10;99.90;;;;;;5145587;28;20030;-73
2023/09/03 03:36:34;;;;;;;8.23;7.53;;;24.20;99.90;;;;;;5160567;28;20122;-73
2023/09/03 03:39:05;;;;;;;8.88;7.45;;;24.10;99.90;;;;;;5145373;28;20066;-74
2023/09/03 03:41:37;;;;;;;8.80;8.10;;;24.20;99.90;;;;;;5144173;28;20511;-74
2023/09/03 03:44:07;;;;;;;7.88;7.18;;;24.10;99.90;;;;;;5145588;28;20394;-73
2023/09/03 03:46:39;;;;;;;6.80;6.20;;;24.10;99.90;;;;;;5145769;28;20031;-75
2023/09/03 03:49:10;;;;;;;6.75;6.03;;;24.10;99.90;;;;;;5145260;28;20499;-74
2023/09/03 03:51:41;;;;;;;7.32;6.50;;;24.10;99.90;;;;;;5144841;28;20034;-73
2023/09/03 03:54:12;;;;;;;6.75;6.18;;;24.10;99.90;;;;;;5145009;28;20415;-73
2023/09/03 03:56:43;;;;;;;6.85;6.15;;;24.10;99.90;;;;;;5142572;28;20085;-73
2023/09/03 03:59:13;;;;;;;6.78;6.28;;;24.10;99.90;;;;;;5142643;28;20109;-73
2023/09/03 04:01:46;;;;;;;6.22;5.72;;;24.10;99.90;;;;;;5143783;28;20172;-73
2023/09/03 04:04:16;;;;;;;6.35;5.85;;;24.10;99.90;;;;;;5142553;28;20054;-73
2023/09/03 04:06:47;;;;;;;7.05;6.38;;;24.10;99.90;;;;;;5158703;28;20027;-73
2023/09/03 04:09:18;;;;;;;8.57;6.32;;;24.20;99.90;;;;;;5143685;28;20094;-73
2023/09/03 04:11:49;;;;;;;7.05;6.38;;;24.20;99.90;;;;;;5144970;28;20106;-73
2023/09/03 04:14:20;;;;;;;6.97;6.38;;;24.20;99.90;;;;;;5144988;28;20035;-73
2023/09/03 04:16:50;;;;;;;6.68;6.05;;;24.20;99.90;;;;;;5145046;28;20015;-73
2023/09/03 04:19:21;;;;;;;6.82;6.30;;;24.20;99.90;;;;;;5144868;28;20027;-74
2023/09/03 04:21:52;;;;;;;7.20;6.47;;;24.20;99.90;;;;;;5145024;28;20129;-73
2023/09/03 04:24:23;;;;;;;7.45;6.88;;;24.30;99.90;;;;;;5143806;28;20027;-73
2023/09/03 04:26:54;;;;;;;6.68;6.18;;;24.30;99.90;;;;;;5145242;28;20427;-73
2023/09/03 04:29:24;;;;;;;8.45;6.72;;;24.40;99.90;;;;;;5145223;28;20039;-72
2023/09/03 04:31:55;;;;;;;6.72;6.22;;;24.30;99.90;;;;;;5145551;28;20030;-73
2023/09/03 04:34:26;;;;;;;11.65;7.07;;;24.40;99.90;;;;;;5148955;28;20066;-73
2023/09/03 04:36:57;;;;;;;7.45;6.85;;;24.40;99.90;;;;;;5147670;28;20027;-73
2023/09/03 04:39:28;;;;;;;7.50;6.80;;;24.60;99.90;;;;;;5148531;28;20077;-73
2023/09/03 04:41:58;;;;;;;7.25;6.63;;;24.60;99.90;;;;;;5149007;28;20487;-72
2023/09/03 04:44:29;;;;;;;7.05;6.45;;;24.70;99.90;;;;;;5148799;28;20479;-73
2023/09/03 04:47:00;;;;;;;8.02;6.20;;;24.70;99.90;;;;;;5147555;28;20546;-73
2023/09/03 04:49:32;;;;;;;6.78;5.70;;;24.80;99.90;;;;;;5147722;28;20046;-73
2023/09/03 04:52:03;;;;;;;6.90;5.75;;;24.70;99.90;;;;;;5147652;28;20019;-72
2023/09/03 04:54:34;;;;;;;5.78;5.38;;;24.80;99.90;;;;;;5147213;28;20019;-73
2023/09/03 04:57:05;;;;;;;6.55;5.57;;;24.80;99.90;;;;;;5147046;28;20093;-73
2023/09/03 04:59:36;;;;;;;5.75;5.25;;;24.80;99.90;;;;;;5145799;28;20042;-73
2023/09/03 05:02:06;;;;;;;5.68;5.07;;;24.80;99.90;;;;;;5147159;28;20055;-73
2023/09/03 05:04:37;;;;;;;5.72;5.22;;;24.80;99.90;;;;;;5147061;28;20494;-72
2023/09/03 05:07:08;;;;;;;6.95;6.10;;;24.80;99.90;;;;;;5147735;28;20485;-73
2023/09/03 05:09:39;;;;;;;5.80;5.30;;;24.80;99.90;;;;;;5147915;28;20430;-72
2023/09/03 05:12:09;;;;;;;5.78;5.13;;;24.90;99.90;;;;;;5148112;28;20031;-74
2023/09/03 05:14:40;;;;;;;6.85;5.88;;;24.90;99.90;;;;;;5148065;28;20077;-72
2023/09/03 05:17:11;;;;;;;6.07;5.68;;;25.00;99.90;;;;;;5148318;28;20098;-73
2023/09/03 05:19:42;;;;;;;6.65;5.88;;;25.00;99.90;;;;;;5147938;28;20018;-74
2023/09/03 05:22:13;;;;;;;6.25;5.70;;;25.20;99.90;;;;;;5147848;28;20046;-73
2023/09/03 05:24:44;;;;;;;6.60;5.97;;;25.20;99.90;;;;;;5148001;28;20026;-73
2023/09/03 05:27:14;;;;;;;6.50;5.93;;;25.20;99.90;;;;;;5146731;28;20362;-74
2023/09/03 05:29:45;;;;;;;7.57;5.97;;;25.30;99.90;;;;;;5147837;28;20528;-74
2023/09/03 05:32:16;;;;;;;7.95;5.55;;;25.30;99.90;;;;;;5147877;28;20031;-73
2023/09/03 05:34:47;;;;;;;7.53;6.15;;;25.30;99.90;;;;;;5147916;28;20062;-72
2023/09/03 05:37:18;;;;;;;7.20;5.90;;;25.30;99.90;;;;;;5147779;28;20027;-73
2023/09/03 05:39:51;;;;;;;7.75;7.10;;;25.50;99.90;;;;;;5147373;28;20069;-73
2023/09/03 05:42:22;;;;;;;7.72;7.03;;;25.60;99.90;;;;;;5147712;28;20041;-73
2023/09/03 05:44:55;;;;;;;9.20;8.30;;;25.80;99.90;;;;;;5146767;28;20097;-73
2023/09/03 05:47:26;;;;;;;11.57;8.82;;;25.70;99.90;;;;;;5146550;28;20037;-74
2023/09/03 05:49:57;;;;;;;9.68;8.80;;;25.70;99.90;;;;;;5145027;28;20440;-73
2023/09/03 05:52:27;;;;;;;10.07;9.27;;;25.80;99.90;;;;;;5146137;28;20106;-72
2023/09/03 05:54:58;;;;;;;9.25;8.45;;;25.60;99.90;;;;;;5144980;28;20121;-73
2023/09/03 05:57:29;;;;;;;8.57;7.88;;;25.60;99.90;;;;;;5146071;28;20031;-74
2023/09/03 06:00:00;;;;;;;7.97;7.40;;;25.60;99.90;;;;;;5146094;28;20031;-72
2023/09/03 06:02:33;;;;;;;8.10;7.53;;;25.60;99.90;;;;;;5147197;28;20026;-73
2023/09/03 06:05:04;;;;;;;9.20;8.18;;;25.70;99.90;;;;;;5147343;28;20015;-72
2023/09/03 06:07:35;;;;;;;10.70;7.72;;;25.90;99.90;;;;;;5147368;28;20418;-73
2023/09/03 06:10:06;;;;;;;8.15;7.40;;;25.90;99.90;;;;;;5145993;28;20043;-74
2023/09/03 06:12:37;;;;;;;8.13;7.38;;;25.90;99.90;;;;;;5146369;28;20033;-73
2023/09/03 06:15:08;;;;;;;8.75;7.63;;;25.90;99.90;;;;;;5144445;28;20518;-72
2023/09/03 06:17:39;;;;;;;8.32;7.50;;;25.80;99.90;;;;;;5145974;28;20101;-73
2023/09/03 06:20:10;;;;;;;9.48;7.63;;;25.80;99.90;;;;;;5145847;28;20110;-74
2023/09/03 06:22:41;;;;;;;7.53;6.82;;;25.90;99.90;;;;;;5145997;28;20602;-74
2023/09/03 06:25:12;;;;;;;8.68;8.05;;;26.10;99.90;;;;;;5145864;28;20114;-74
2023/09/03 06:27:43;;;;;;;8.73;7.93;;;26.20;99.90;;;;;;5144319;28;20145;-74
2023/09/03 06:30:13;;;;;;;9.13;8.43;;;26.20;99.90;;;;;;5145673;28;20019;-72
2023/09/03 06:32:44;;;;;;;7.97;7.38;;;26.20;99.90;;;;;;5145603;28;20427;-74
2023/09/03 06:35:15;;;;;;;9.32;8.65;;;26.30;99.90;;;;;;5145524;28;20026;-74
2023/09/03 06:37:46;;;;;;;9.20;8.40;;;26.50;99.90;;;;;;5145309;28;20038;-74
2023/09/03 06:40:18;;;;;;;8.13;7.53;;;26.70;99.90;;;;;;5143351;28;20479;-74
2023/09/03 06:42:49;;;;;;;8.05;7.25;;;26.80;99.90;;;;;;5144427;28;20386;-74
2023/09/03 06:45:20;;;;;;;8.48;7.68;;;26.90;99.90;;;;;;5159412;28;20026;-73
2023/09/03 06:47:51;;;;;;;8.23;7.32;;;27.10;99.90;;;;;;5144697;28;20575;-75
2023/09/03 06:50:21;;;;;;;8.38;7.38;;;27.30;99.90;;;;;;5128814;28;20121;-75
2023/09/03 06:52:52;;;;;;;8.68;7.90;;;27.20;99.90;;;;;;5103916;28;20087;-73
2023/09/03 06:55:23;;;;;;;7.65;7.05;;;27.10;99.90;;;;;;5139220;28;20114;-74
2023/09/03 06:57:54;;;;;;;8.02;7.32;;;27.00;99.90;;;;;;5140655;28;20069;-73
2023/09/03 07:00:25;;;;;;;7.72;7.03;;;27.10;99.90;;;;;;5154021;28;20062;-74
2023/09/03 07:02:56;;;;;;;8.82;7.88;;;27.00;99.90;;;;;;5139401;28;20639;-73
2023/09/03 07:05:27;;;;;;;8.52;7.60;;;27.20;99.90;;;;;;5137591;28;20035;-74
2023/09/03 07:07:58;;;;;;;8.40;7.68;;;27.20;99.90;;;;;;5139913;28;20101;-73
2023/09/03 07:10:28;;;;;;;9.13;8.23;;;27.10;99.90;;;;;;5139700;28;20113;-74
2023/09/03 07:12:59;;;;;;;14.82;8.77;;;27.20;99.90;;;;;;5141745;28;20042;-75
2023/09/03 07:15:30;;;;;;;11.50;10.48;;;27.30;99.90;;;;;;5141882;28;20042;-73
2023/09/03 07:18:01;;;;;;;11.32;10.52;;;27.20;99.90;;;;;;5145146;28;20026;-73
2023/09/03 07:20:32;;;;;;;8.45;7.80;;;27.60;99.90;;;;;;5143435;28;20035;-74
2023/09/03 07:23:03;;;;;;;8.20;7.07;;;27.80;99.90;;;;;;5142973;28;20440;-74
2023/09/03 07:25:35;;;;;;;7.35;6.75;;;28.10;99.90;;;;;;5143335;28;20580;-74
2023/09/03 07:28:06;;;;;;;6.82;6.35;;;28.20;99.90;;;;;;5142672;28;20431;-73
2023/09/03 07:30:39;;;;;;;7.22;6.03;;;28.30;99.90;;;;;;5143011;28;20070;-74
2023/09/03 07:33:09;;;;;;;7.05;6.47;;;28.30;99.90;;;;;;5145274;28;20019;-73
2023/09/03 07:35:40;;;;;;;7.57;6.88;;;28.40;99.90;;;;;;5144218;28;20030;-73
2023/09/03 07:38:11;;;;;;;8.30;6.82;;;28.30;99.90;;;;;;5144408;28;20101;-73
2023/09/03 07:40:42;;;;;;;8.10;7.38;;;28.60;99.90;;;;;;5144774;28;20086;-74
2023/09/03 07:43:13;;;;;;;8.60;8.00;;;28.40;99.90;;;;;;5144317;28;20054;-74
2023/09/03 07:45:45;;;;;;;8.57;7.68;;;28.40;99.90;;;;;;5145278;28;20038;-72
2023/09/03 07:48:16;;;;;;;8.85;8.13;;;28.50;99.90;;;;;;5174081;28;20113;-74
2023/09/03 07:50:46;;;;;;;8.43;7.63;;;28.60;99.90;;;;;;5153590;28;20456;-74
2023/09/03 07:53:17;;;;;;;12.32;8.95;;;28.40;99.90;;;;;;5151436;28;20092;-74
2023/09/03 07:55:48;;;;;;;9.23;8.32;;;28.50;99.90;;;;;;5144385;28;20031;-73
2023/09/03 07:58:19;;;;;;;9.20;8.50;;;28.60;99.90;;;;;;5142457;28;20068;-76
2023/09/03 08:00:50;;;;;;;8.75;8.05;;;28.70;99.90;;;;;;5144022;28;20030;-75
2023/09/03 08:03:21;;;;;;;9.38;8.35;;;28.40;99.90;;;;;;5143663;28;20085;-74
2023/09/03 08:05:52;;;;;;;8.30;7.50;;;28.40;99.90;;;;;;5142829;28;20015;-73
2023/09/03 08:08:23;;;;;;;8.35;6.72;;;28.70;99.90;;;;;;5144021;28;20367;-75
2023/09/03 08:10:55;;;;;;;6.15;5.65;;;29.00;99.90;;;;;;5145105;28;20031;-73
2023/09/03 08:13:26;;;;;;;6.18;5.47;;;28.80;99.90;;;;;;5145278;28;20031;-73
2023/09/03 08:15:57;;;;;;;6.00;5.40;;;28.80;99.90;;;;;;5145321;28;20129;-73
2023/09/03 08:18:28;;;;;;;7.53;5.88;;;28.40;99.90;;;;;;5144624;28;20109;-73
2023/09/03 08:20:58;;;;;;;9.38;7.00;;;28.60;99.90;;;;;;5145137;28;20019;-73
2023/09/03 08:23:29;;;;;;;7.32;6.65;;;28.40;99.90;;;;;;5144984;28;20045;-72
2023/09/03 08:26:00;;;;;;;7.80;7.18;;;28.30;99.90;;;;;;5145104;28;20046;-73
2023/09/03 08:28:31;;;;;;;8.93;8.15;;;28.10;99.90;;;;;;5159787;28;20116;-73
2023/09/03 08:31:02;;;;;;;9.73;8.82;;;28.30;99.90;;;;;;5144901;28;20070;-73
2023/09/03 08:33:33;;;;;;;9.82;9.02;;;28.40;99.90;;;;;;5176610;28;20042;-74
2023/09/03 08:36:04;;;;;;;11.63;7.78;;;28.60;99.90;;;;;;5149968;28;20023;-73
2023/09/03 08:38:35;;;;;;;9.18;8.43;;;28.30;99.90;;;;;;5152626;28;20415;-73
2023/09/03 08:41:06;;;;;;;8.45;7.57;;;28.30;99.90;;;;;;5146576;28;20046;-73
2023/09/03 08:43:38;;;;;;;6.85;6.03;;;28.70;99.90;;;;;;5142589;28;20027;-73
2023/09/03 08:46:15;;;;;;;6.65;6.05;;;28.80;99.90;;;;;;5142647;28;20030;-74
2023/09/03 08:48:47;;;;;;;8.32;6.78;;;28.60;99.90;;;;;;5140808;28;20038;-73
2023/09/03 08:51:19;;;;;;;8.10;6.05;;;28.40;99.90;;;;;;5143124;28;20058;-72
2023/09/03 08:53:53;;;;;;;6.38;5.80;;;28.50;99.90;;;;;;5144314;28;20062;-74
2023/09/03 08:56:24;;;;;;;6.43;5.80;;;28.70;99.90;;;;;;5175802;28;20015;-73
2023/09/03 08:58:55;;;;;;;6.25;5.63;;;28.60;99.90;;;;;;5144453;28;20041;-75
2023/09/03 09:01:29;;;;;;;7.95;6.47;;;28.70;99.90;;;;;;5144473;28;20118;-73
2023/09/03 09:04:04;;;;;;;7.80;6.82;;;28.40;99.90;;;;;;5175074;28;20030;-75
2023/09/03 09:06:38;;;;;;;7.78;7.05;;;28.40;99.90;;;;;;5144214;28;20015;-75
2023/09/03 09:09:16;;;;;;;10.65;9.55;;;28.20;99.90;;;;;;5141525;28;20391;-73
2023/09/03 09:11:53;;;;;;;9.43;8.63;;;28.20;99.90;;;;;;5172611;28;20034;-74
2023/09/03 09:14:53;;;;;;;9.00;8.05;;;28.60;99.90;;;;;;5143959;28;20038;-73
2023/09/03 09:17:24;;;;;;;11.00;6.22;;;28.60;99.90;;;;;;5134357;28;20035;-75
2023/09/03 09:20:01;;;;;;;7.95;6.13;;;28.70;99.90;;;;;;5146340;28;20149;-73
2023/09/03 09:22:42;;;;;;;6.95;6.35;;;28.60;99.90;;;;;;5145231;28;20065;-74
2023/09/03 09:25:21;;;;;;;8.25;7.50;;;28.40;99.90;;;;;;5148566;28;20058;-73
2023/09/03 09:27:52;;;;;;;;;;;28.30;99.90;;;;;;5148173;28;20027;-75
2023/09/03 09:30:25;;;;;;;8.23;7.53;;;28.50;99.90;;;;;;5145917;28;19914;-75
2023/09/03 09:33:07;;;;;;;7.80;7.20;;;28.60;99.90;;;;;;5145749;28;20156;-74
2023/09/03 09:35:37;;;;;;;9.77;8.95;;;28.40;99.90;;;;;;5145231;28;20048;-74
2023/09/03 09:38:09;;;;;;;10.48;9.57;;;28.20;99.90;;;;;;5147618;28;20033;-73
2023/09/03 09:40:40;;;;;;;10.15;9.45;;;28.30;99.90;;;;;;5146191;28;20524;-73
2023/09/03 09:43:11;;;;;;;10.27;9.40;;;28.30;99.90;;;;;;5146528;28;20035;-73
2023/09/03 09:45:46;;;;;;;10.25;9.35;;;28.30;99.90;;;;;;5147719;28;20110;-75
2023/09/03 09:48:17;;;;;;;8.93;7.22;;;28.60;99.90;;;;;;5147610;28;20042;-73
2023/09/03 09:50:50;;;;;;;11.93;7.28;;;28.80;99.90;;;;;;5178935;28;20023;-74
2023/09/03 09:53:26;;;;;;;15.98;7.72;;;28.50;99.90;;;;;;5147610;28;20038;-74
2023/09/03 09:56:03;;;;;;;6.78;6.10;;;28.30;99.90;;;;;;5146352;28;20031;-74
2023/09/03 09:58:38;;;;;;;10.07;6.57;;;28.50;99.90;;;;;;5145945;28;20023;-73
2023/09/03 10:01:09;;;;;;;7.70;7.00;;;28.50;99.90;;;;;;5147450;28;20031;-74
2023/09/03 10:03:47;;;;;;;8.60;7.70;;;28.50;99.90;;;;;;5146560;28;20014;-73
2023/09/03 10:06:23;;;;;;;12.90;10.15;;;28.20;99.90;;;;;;5146273;28;20027;-73
2023/09/03 10:08:53;;;;;;;11.55;10.63;;;28.10;99.90;;;;;;5147028;28;20066;-75
2023/09/03 10:11:24;;;;;;;13.70;10.77;;;28.10;99.90;;;;;;5147154;28;20058;-73
2023/09/03 10:13:55;;;;;;;8.00;6.80;;;27.70;99.90;;;;;;5147156;28;20038;-75
2023/09/03 10:16:26;;;;;;;8.48;6.75;;;27.50;99.90;;;;;;5147248;28;20027;-72
2023/09/03 10:19:01;;;;;;;6.90;6.30;;;27.40;99.90;;;;;;5146750;28;20081;-75
2023/09/03 10:21:33;;;;;;;7.45;6.75;;;27.70;99.90;;;;;;5146568;28;20113;-73
2023/09/03 10:24:05;;;;;;;7.70;6.10;;;27.70;99.90;;;;;;5146870;28;20114;-75
2023/09/03 10:26:44;;;;;;;10.25;6.68;;;27.50;99.90;;;;;;5146950;28;20035;-73
2023/09/03 10:29:19;;;;;;;10.70;7.63;;;27.50;99.90;;;;;;5144523;28;20026;-73
2023/09/03 10:31:53;;;;;;;9.25;8.40;;;27.30;99.90;;;;;;5145321;28;20026;-73
2023/09/03 10:34:23;;;;;;;7.70;7.00;;;27.10;99.90;;;;;;5145593;28;20058;-74
2023/09/03 10:37:08;;;;;;;8.20;6.32;;;27.20;99.90;;;;;;5145406;28;20046;-73
2023/09/03 10:39:40;;;;;;;10.13;7.80;;;27.40;99.90;;;;;;5145248;28;20066;-75
2023/09/03 10:42:31;;;;;;;11.13;9.10;;;27.10;99.90;;;;;;5145557;28;20034;-73
2023/09/03 10:45:11;;;;;;;12.32;8.25;;;27.20;99.90;;;;;;5144588;28;20018;-75
2023/09/03 10:48:01;;;;;;;9.85;7.90;;;27.10;99.90;;;;;;5145472;28;20169;-73
2023/09/03 10:50:48;;;;;;;8.85;7.95;;;27.30;99.90;;;;;;5146728;28;20066;-74
2023/09/03 10:53:38;;;;;;;9.13;7.57;;;27.40;99.90;;;;;;5145462;28;20018;-73
2023/09/03 10:56:17;;;;;;;9.98;7.85;;;27.20;99.90;;;;;;5146525;28;20414;-73
2023/09/03 10:58:58;;;;;;;9.88;9.02;;;27.20;99.90;;;;;;5145016;28;20033;-74
2023/09/03 11:01:31;;;;;;;9.98;9.18;;;27.70;99.90;;;;;;5146565;28;20050;-74
2023/09/03 11:04:05;;;;;;;9.30;8.32;;;27.70;99.90;;;;;;5146168;28;20050;-73
2023/09/03 11:06:36;;;;;;;10.10;8.93;;;27.60;99.90;;;;;;5146275;28;20022;-73
2023/09/03 11:09:09;;;;;;;9.40;7.18;;;27.50;99.90;;;;;;5145860;28;20046;-74
2023/09/03 11:11:40;;;;;;;8.93;7.93;;;27.20;99.90;;;;;;5146178;28;20041;-73
2023/09/03 11:14:11;;;;;;;9.75;7.57;;;27.10;99.90;;;;;;5146065;28;20034;-73
2023/09/03 11:16:42;;;;;;;7.88;7.07;;;27.10;99.90;;;;;;5145701;28;20026;-75
2023/09/03 11:19:13;;;;;;;8.52;7.70;;;27.00;99.90;;;;;;5145457;28;20119;-72
2023/09/03 11:21:44;;;;;;;8.68;7.60;;;27.00;99.90;;;;;;5145826;28;20023;-73
2023/09/03 11:24:16;;;;;;;11.68;8.27;;;27.10;99.90;;;;;;5145758;28;20031;-73
2023/09/03 11:27:04;;;;;;;10.02;7.82;;;27.00;99.90;;;;;;5145813;28;20443;-73
2023/09/03 11:29:34;;;;;;;9.00;8.00;;;27.00;99.90;;;;;;5145554;28;20038;-73
2023/09/03 11:32:05;;;;;;;7.80;7.10;;;27.20;99.90;;;;;;5145643;28;20046;-72
2023/09/03 11:34:36;;;;;;;11.60;7.93;;;27.40;99.90;;;;;;5145525;28;20065;-73
2023/09/03 11:37:07;;;;;;;8.30;7.57;;;27.80;99.90;;;;;;5145715;28;20050;-73
2023/09/03 11:39:38;;;;;;;8.13;6.18;;;28.10;99.90;;;;;;5145128;28;20102;-73
2023/09/03 11:42:13;;;;;;;6.50;5.75;;;28.30;99.90;;;;;;5144817;28;20046;-72
2023/09/03 11:44:49;;;;;;;9.45;8.50;;;28.50;99.90;;;;;;5145395;28;20034;-73
2023/09/03 11:47:20;;;;;;;10.30;8.15;;;28.80;99.90;;;;;;5145121;28;20019;-73
2023/09/03 11:49:51;;;;;;;89.00;15.23;;;28.90;99.90;;;;;;5144441;28;20057;-73
2023/09/03 11:52:22;;;;;;;11.75;7.68;;;29.10;99.90;;;;;;5144364;28;20025;-73
2023/09/03 11:54:55;;;;;;;36.78;8.43;;;28.80;99.90;;;;;;5143826;28;20031;-73
2023/09/03 11:57:26;;;;;;;8.32;7.43;;;28.80;99.90;;;;;;5144135;28;20068;-73
2023/09/03 11:59:57;;;;;;;9.57;6.97;;;28.90;99.90;;;;;;5143877;28;20027;-72
2023/09/03 12:02:28;;;;;;;11.02;7.45;;;29.00;99.90;;;;;;5143776;28;20015;-73
2023/09/03 12:05:00;;;;;;;10.90;7.97;;;29.20;99.90;;;;;;5143754;28;20027;-72
2023/09/03 12:07:31;;;;;;;7.65;6.85;;;29.00;99.90;;;;;;5144893;28;20037;-73
2023/09/03 12:10:02;;;;;;;6.95;6.20;;;28.60;99.90;;;;;;5143892;28;20133;-73
2023/09/03 12:12:33;;;;;;;9.15;7.72;;;28.60;99.90;;;;;;5145313;28;20027;-72
2023/09/03 12:15:19;;;;;;;6.95;6.25;;;29.20;99.90;;;;;;5143945;28;20037;-72
2023/09/03 12:17:50;;;;;;;7.88;6.53;;;29.40;99.90;;;;;;5145177;28;20015;-72
2023/09/03 12:20:31;;;;;;;14.15;7.00;;;29.30;99.90;;;;;;5145205;28;20061;-73
2023/09/03 12:23:17;;;;;;;9.20;7.07;;;29.20;99.90;;;;;;5145006;28;20054;-73
2023/09/03 12:25:48;;;;;;;16.88;7.80;;;29.40;99.90;;;;;;5145139;28;20455;-74
2023/09/03 12:28:32;;;;;;;8.48;7.82;;;29.60;99.90;;;;;;5144827;28;20030;-72
2023/09/03 12:31:05;;;;;;;9.88;9.00;;;29.40;99.90;;;;;;5145162;28;20026;-72
2023/09/03 12:33:45;;;;;;;14.80;13.35;;;29.60;99.90;;;;;;5144864;28;20446;-74
2023/09/03 12:36:18;;;;;;;14.48;13.27;;;29.70;99.90;;;;;;5143723;28;20046;-73
2023/09/03 12:38:53;;;;;;;11.63;10.48;;;29.40;99.90;;;;;;5144728;28;20015;-72
2023/09/03 12:41:34;;;;;;;9.18;8.30;;;29.60;99.90;;;;;;5144847;28;20101;-73
2023/09/03 12:44:07;;;;;;;7.45;6.78;;;29.50;99.90;;;;;;5144811;28;20015;-72
2023/09/03 12:46:38;;;;;;;7.50;6.80;;;29.20;99.90;;;;;;5142741;28;20026;-72
2023/09/03 12:49:09;;;;;;;8.95;6.78;;;29.20;99.90;;;;;;5142031;28;20026;-74
2023/09/03 12:51:41;;;;;;;7.22;5.93;;;29.40;99.90;;;;;;5141417;28;20030;-72
2023/09/03 12:54:13;;;;;;;8.45;6.40;;;29.00;99.90;;;;;;5147378;28;20098;-72
2023/09/03 12:56:44;;;;;;;8.85;7.90;;;28.90;99.90;;;;;;5148875;28;20034;-73
2023/09/03 12:59:15;;;;;;;11.35;10.23;;;28.80;99.90;;;;;;5147241;28;20085;-74
2023/09/03 13:01:46;;;;;;;9.98;9.18;;;28.70;99.90;;;;;;5146643;28;20038;-74
2023/09/03 13:04:17;;;;;;;10.50;9.70;;;28.50;99.90;;;;;;5144084;28;20016;-74
2023/09/03 13:06:48;;;;;;;17.50;11.05;;;28.40;99.90;;;;;;5148618;28;20446;-72
2023/09/03 13:09:18;;;;;;;10.85;9.85;;;28.20;99.90;;;;;;5148293;28;20121;-75
2023/09/03 13:11:49;;;;;;;10.30;9.48;;;28.10;99.90;;;;;;5148496;28;20114;-72
2023/09/03 13:14:20;;;;;;;8.55;7.80;;;28.00;99.90;;;;;;5147077;28;20375;-72